Time;durP1;ratioP1;P1;durP2;ratioP2;P2;SDS_P1;SDS_P2;PMS_P1;PMS_P2;Temp;Humidity;BMP_temperature;BMP_pressure;BME280_temperature;BME280_humidity;BME280_pressure;Samples;Min_cycle;Max_cycle;Signal;HPM_P1;HPM_P2
2022/11/04 00:02:00;;;;;;;1.10;1.10;;;17.90;94.80;;;;;;5034473;28;20209;-68
2022/11/04 00:04:27;;;;;;;1.50;1.30;;;17.90;94.80;;;;;;5034411;28;20183;-68
2022/11/04 00:06:55;;;;;;;1.48;1.38;;;17.90;94.80;;;;;;5023775;28;20184;-68
2022/11/04 00:09:27;;;;;;;2.55;1.45;;;17.90;94.70;;;;;;5015818;28;20180;-69
2022/11/04 00:14:52;;;;;;;2.75;1.23;;;17.90;94.80;;;;;;5005746;28;20195;-69
2022/11/04 00:17:23;;;;;;;1.75;1.17;;;17.90;94.70;;;;;;5014344;28;20184;-68
2022/11/04 00:33:52;;;;;;;1.40;1.30;;;17.90;94.60;;;;;;5016035;28;20180;-68
2022/11/04 00:36:19;;;;;;;1.33;1.23;;;17.90;94.80;;;;;;5047197;28;20184;-69
2022/11/04 00:38:45;;;;;;;1.20;1.02;;;17.90;94.80;;;;;;4997665;28;20184;-68
2022/11/04 00:41:26;;;;;;;1.30;1.20;;;17.90;94.90;;;;;;4997440;28;20215;-69
2022/11/04 00:43:59;;;;;;;1.90;1.30;;;17.90;94.90;;;;;;5013881;28;20173;-68
2022/11/04 00:46:26;;;;;;;1.48;1.38;;;17.90;94.90;;;;;;5014312;28;20184;-68
2022/11/04 00:48:53;;;;;;;1.30;1.20;;;17.90;94.80;;;;;;5014241;28;20211;-69
2022/11/04 00:51:20;;;;;;;2.10;1.30;;;17.90;94.80;;;;;;5013434;28;20699;-68
2022/11/04 00:53:46;;;;;;;1.23;1.13;;;17.90;94.80;;;;;;5012493;28;20192;-68
2022/11/04 00:56:11;;;;;;;1.20;1.10;;;17.90;94.90;;;;;;5013674;28;20176;-69
2022/11/04 00:58:37;;;;;;;1.50;1.23;;;17.90;94.90;;;;;;5013703;28;20570;-68
2022/11/04 01:01:12;;;;;;;1.25;1.15;;;18.00;94.90;;;;;;5013441;28;20224;-68
2022/11/04 01:03:38;;;;;;;1.15;1.05;;;17.90;94.80;;;;;;5013808;28;20184;-69
2022/11/04 01:06:04;;;;;;;1.20;1.10;;;17.90;94.70;;;;;;5029100;28;20188;-69
2022/11/04 01:08:31;;;;;;;1.20;1.10;;;17.90;94.70;;;;;;5013386;28;20188;-68
2022/11/04 01:11:04;;;;;;;0.98;0.98;;;17.90;94.70;;;;;;5013544;28;20212;-69
2022/11/04 01:13:30;;;;;;;1.38;1.23;;;17.90;94.70;;;;;;5029719;28;20275;-69
2022/11/04 01:15:59;;;;;;;1.42;1.30;;;17.90;94.70;;;;;;5029675;28;20188;-68
2022/11/04 01:18:25;;;;;;;1.42;1.20;;;17.90;94.80;;;;;;5013668;28;20282;-69
2022/11/04 01:20:51;;;;;;;1.40;1.20;;;17.90;94.70;;;;;;5013107;28;20310;-68
2022/11/04 01:23:17;;;;;;;1.05;0.95;;;17.90;94.90;;;;;;5029610;28;20259;-69
2022/11/04 01:25:46;;;;;;;1.10;0.98;;;17.90;94.70;;;;;;4996918;28;20180;-68
2022/11/04 01:28:11;;;;;;;1.13;1.00;;;17.90;94.80;;;;;;5013111;28;20199;-68
2022/11/04 01:30:38;;;;;;;1.10;1.00;;;17.90;94.80;;;;;;5012913;28;20707;-68
2022/11/04 01:33:03;;;;;;;1.08;1.00;;;17.90;95.20;;;;;;5012749;28;20191;-68
2022/11/04 01:35:30;;;;;;;1.02;1.02;;;17.90;94.80;;;;;;5011871;28;20183;-69
2022/11/04 01:37:57;;;;;;;1.25;1.13;;;17.90;94.90;;;;;;5016563;28;20195;-68
2022/11/04 01:40:23;;;;;;;1.05;1.00;;;17.90;94.70;;;;;;5016048;28;20218;-68
2022/11/04 01:42:49;;;;;;;1.23;1.13;;;17.90;94.70;;;;;;5015949;28;20180;-68
2022/11/04 01:45:18;;;;;;;1.48;1.00;;;17.90;94.80;;;;;;5032914;28;20175;-68
2022/11/04 01:48:02;;;;;;;0.90;0.90;;;17.90;94.70;;;;;;5015993;28;20639;-68
2022/11/04 01:50:31;;;;;;;1.00;0.90;;;17.90;94.70;;;;;;5046895;23;20232;-67
2022/11/04 01:53:10;;;;;;;1.77;1.10;;;17.90;94.70;;;;;;5012168;28;20211;-67
2022/11/04 01:55:51;;;;;;;1.33;1.10;;;17.90;94.60;;;;;;5012472;28;20184;-66
2022/11/04 01:58:23;;;;;;;1.20;1.10;;;17.90;94.60;;;;;;4996483;28;20176;-67
2022/11/04 02:00:49;;;;;;;1.65;0.85;;;17.90;94.70;;;;;;5023127;28;20215;-66
2022/11/04 02:03:28;;;;;;;0.90;0.90;;;17.90;94.70;;;;;;5038584;28;20568;-67
2022/11/04 02:05:55;;;;;;;1.10;1.00;;;17.90;94.80;;;;;;5044921;28;20283;-67
2022/11/04 02:08:21;;;;;;;1.10;1.00;;;17.90;94.80;;;;;;5051986;28;20634;-67
2022/11/04 02:11:03;;;;;;;0.93;0.93;;;17.90;94.70;;;;;;5035327;28;20252;-67
2022/11/04 02:13:33;;;;;;;0.85;0.85;;;17.90;94.70;;;;;;5051695;28;20186;-67
2022/11/04 02:16:16;;;;;;;1.83;1.08;;;17.90;94.60;;;;;;5051970;28;20179;-67
2022/11/04 02:19:16;;;;;;;1.08;1.00;;;17.90;94.70;;;;;;5052858;28;20174;-67
2022/11/04 02:22:27;;;;;;;1.00;0.90;;;17.90;94.70;;;;;;5035036;28;20218;-67
2022/11/04 02:25:20;;;;;;;1.05;0.90;;;17.90;94.80;;;;;;5051795;28;20269;-66
2022/11/04 02:28:38;;;;;;;1.20;1.10;;;17.90;94.70;;;;;;5053269;28;20257;-66
2022/11/04 02:31:30;;;;;;;1.20;1.10;;;17.90;94.70;;;;;;5051627;28;20260;-67
2022/11/04 02:35:03;;;;;;;1.55;0.90;;;17.90;94.70;;;;;;5051427;28;20197;-66
2022/11/04 02:37:35;;;;;;;1.65;1.00;;;17.90;94.80;;;;;;5003077;28;20203;-66
2022/11/04 02:40:40;;;;;;;1.25;1.15;;;17.90;94.90;;;;;;5011743;28;20252;-67
2022/11/04 02:43:28;;;;;;;1.35;1.00;;;17.90;95.10;;;;;;5011951;28;20216;-67
2022/11/04 02:46:11;;;;;;;0.80;0.80;;;17.90;94.70;;;;;;5028347;28;20172;-67
2022/11/04 02:49:01;;;;;;;0.73;0.73;;;17.90;94.60;;;;;;5011881;28;20172;-66
2022/11/04 02:51:41;;;;;;;0.93;0.88;;;17.90;94.70;;;;;;5011926;28;20220;-67
2022/11/04 02:54:40;;;;;;;1.10;1.00;;;17.90;94.60;;;;;;5011489;28;20257;-67
2022/11/04 02:57:14;;;;;;;1.02;0.93;;;17.90;94.70;;;;;;4994102;28;20192;-67
2022/11/04 02:59:49;;;;;;;1.20;0.88;;;17.90;94.80;;;;;;5012778;28;20624;-66
2022/11/04 03:02:21;;;;;;;1.05;0.90;;;17.90;94.70;;;;;;5011832;28;20255;-67
2022/11/04 03:04:51;;;;;;;0.80;0.80;;;17.90;95.00;;;;;;5029073;28;20178;-67
2022/11/04 03:07:26;;;;;;;0.68;0.68;;;17.90;94.70;;;;;;5014714;28;20179;-66
2022/11/04 03:10:00;;;;;;;0.73;0.73;;;17.90;94.70;;;;;;5031251;28;20178;-66
2022/11/04 03:12:37;;;;;;;1.08;0.70;;;17.90;94.60;;;;;;5031157;28;20666;-67
2022/11/04 03:15:12;;;;;;;0.80;0.80;;;17.90;94.70;;;;;;5014520;28;20190;-66
2022/11/04 03:17:52;;;;;;;1.13;0.85;;;17.90;94.70;;;;;;5031032;28;20634;-67
2022/11/04 03:20:24;;;;;;;1.00;0.90;;;17.90;94.80;;;;;;5030962;28;20241;-66
2022/11/04 03:22:54;;;;;;;1.02;0.90;;;17.90;94.70;;;;;;5030864;28;20183;-67
2022/11/04 03:25:26;;;;;;;0.70;0.70;;;17.90;94.70;;;;;;5031421;28;20251;-66
2022/11/04 03:28:26;;;;;;;0.82;0.80;;;17.90;94.70;;;;;;5014922;28;20184;-66
2022/11/04 03:30:58;;;;;;;0.80;0.80;;;17.90;94.70;;;;;;5014561;28;20203;-66
2022/11/04 03:33:39;;;;;;;0.75;0.75;;;17.90;94.60;;;;;;5021081;28;20179;-67
2022/11/04 03:36:07;;;;;;;0.95;0.70;;;17.90;94.60;;;;;;5032514;28;20721;-67
2022/11/04 03:38:35;;;;;;;0.50;0.50;;;17.90;94.70;;;;;;5030865;28;20179;-67
2022/11/04 03:41:11;;;;;;;0.70;0.70;;;17.90;94.80;;;;;;5030777;28;20309;-67
2022/11/04 03:43:40;;;;;;;2.10;0.90;;;17.90;94.80;;;;;;5030996;28;20185;-67
2022/11/04 03:46:06;;;;;;;0.70;0.70;;;17.90;94.70;;;;;;5030953;28;20188;-67
2022/11/04 03:48:32;;;;;;;0.70;0.70;;;17.90;94.70;;;;;;5030541;28;20175;-67
2022/11/04 03:50:58;;;;;;;0.70;0.70;;;17.90;94.70;;;;;;5014141;28;20311;-67
2022/11/04 03:53:28;;;;;;;0.88;0.82;;;17.90;94.70;;;;;;5030717;28;20274;-67
2022/11/04 03:56:05;;;;;;;0.85;0.85;;;17.90;94.60;;;;;;5030342;28;20202;-67
2022/11/04 03:58:57;;;;;;;0.70;0.60;;;17.90;94.70;;;;;;5046270;28;20193;-67
2022/11/04 04:01:28;;;;;;;0.70;0.70;;;17.90;94.60;;;;;;5029076;28;20222;-66
2022/11/04 04:04:12;;;;;;;0.63;0.63;;;17.90;94.60;;;;;;5025756;28;20272;-66
2022/11/04 04:06:42;;;;;;;0.60;0.60;;;17.90;94.60;;;;;;5035008;28;20176;-67
2022/11/04 04:09:21;;;;;;;0.70;0.70;;;17.90;94.70;;;;;;5031974;28;20168;-67
2022/11/04 04:11:56;;;;;;;0.90;0.90;;;17.90;94.70;;;;;;5031816;28;20264;-67
2022/11/04 04:14:40;;;;;;;0.70;0.70;;;17.90;94.70;;;;;;5014019;28;20191;-67
2022/11/04 04:17:20;;;;;;;0.75;0.70;;;17.90;94.60;;;;;;5030493;28;20539;-66
2022/11/04 04:20:11;;;;;;;0.75;0.75;;;17.90;94.60;;;;;;5030321;28;20282;-67
2022/11/04 04:22:51;;;;;;;0.88;0.80;;;17.90;94.60;;;;;;5030626;28;20188;-67
2022/11/04 04:28:06;;;;;;;0.70;0.70;;;17.90;94.50;;;;;;5033430;28;20274;-67
2022/11/04 04:30:32;;;;;;;0.70;0.55;;;17.90;94.60;;;;;;5034070;28;20210;-66
2022/11/04 04:33:13;;;;;;;0.60;0.60;;;17.90;94.50;;;;;;5036649;28;20179;-67
2022/11/04 04:35:45;;;;;;;4.93;0.70;;;17.90;94.40;;;;;;5045614;28;20236;-66
2022/11/04 04:47:22;;;;;;;0.68;0.68;;;17.90;94.50;;;;;;5055100;28;20258;-67
2022/11/04 04:49:57;;;;;;;0.50;0.50;;;17.80;94.50;;;;;;5054470;28;20273;-66
2022/11/04 04:52:35;;;;;;;0.50;0.50;;;17.90;94.50;;;;;;5054849;28;20170;-67
2022/11/04 04:55:01;;;;;;;0.50;0.50;;;17.80;94.40;;;;;;5037360;28;20166;-66
2022/11/04 04:57:27;;;;;;;0.50;0.50;;;17.80;94.20;;;;;;5036766;28;20541;-66
2022/11/04 04:59:53;;;;;;;0.45;0.45;;;17.80;94.30;;;;;;5054557;28;20214;-67
2022/11/04 05:02:18;;;;;;;0.52;0.52;;;17.80;94.20;;;;;;5053366;28;20309;-66
2022/11/04 05:04:44;;;;;;;0.50;0.50;;;17.90;94.40;;;;;;5027070;28;20193;-67
2022/11/04 05:07:10;;;;;;;0.70;0.70;;;17.80;94.60;;;;;;5033359;28;20283;-67
2022/11/04 05:09:36;;;;;;;0.80;0.77;;;17.80;94.20;;;;;;5033536;28;20192;-66
2022/11/04 05:12:02;;;;;;;0.93;0.70;;;17.80;94.40;;;;;;5016968;28;20275;-66
2022/11/04 05:14:29;;;;;;;0.60;0.60;;;17.90;94.50;;;;;;5034279;28;20266;-67
2022/11/04 05:16:55;;;;;;;2.05;0.57;;;17.90;94.50;;;;;;5015160;28;20203;-67
2022/11/04 05:19:21;;;;;;;1.48;0.60;;;17.80;94.40;;;;;;4997140;28;20199;-67
2022/11/04 05:21:46;;;;;;;1.38;0.70;;;17.90;94.30;;;;;;5014440;28;20215;-67
2022/11/04 05:24:12;;;;;;;0.60;0.52;;;17.80;94.40;;;;;;4996735;28;20199;-67
2022/11/04 05:26:38;;;;;;;0.60;0.60;;;17.90;94.30;;;;;;4996908;28;20176;-67
2022/11/04 05:29:04;;;;;;;0.70;0.70;;;17.90;94.30;;;;;;5013197;28;20184;-67
2022/11/04 05:31:29;;;;;;;0.75;0.60;;;17.80;94.30;;;;;;5013122;28;20211;-67
2022/11/04 05:33:57;;;;;;;0.57;0.57;;;17.80;94.20;;;;;;5019674;28;20235;-67
2022/11/04 05:36:23;;;;;;;0.40;0.40;;;17.80;94.20;;;;;;5032972;28;20183;-67
2022/11/04 05:38:51;;;;;;;0.55;0.55;;;17.80;94.20;;;;;;5031945;28;20248;-67
2022/11/04 05:41:27;;;;;;;0.60;0.60;;;17.80;94.20;;;;;;5016137;28;20231;-66
2022/11/04 05:43:55;;;;;;;0.98;0.50;;;17.80;94.20;;;;;;5015991;28;20179;-67
2022/11/04 05:46:22;;;;;;;0.50;0.50;;;17.80;94.00;;;;;;5032932;28;20171;-66
2022/11/04 05:48:48;;;;;;;0.98;0.70;;;17.80;94.00;;;;;;5032373;28;20191;-67
2022/11/04 05:51:17;;;;;;;0.55;0.50;;;17.80;94.00;;;;;;5032521;28;20218;-67
2022/11/04 05:53:43;;;;;;;0.82;0.70;;;17.80;94.00;;;;;;5016046;28;20191;-67
2022/11/04 05:56:09;;;;;;;0.50;0.50;;;17.80;94.10;;;;;;5049142;28;20191;-67
2022/11/04 05:58:35;;;;;;;0.47;0.47;;;17.80;94.00;;;;;;5032434;28;20226;-67
2022/11/04 06:01:49;;;;;;;0.70;0.60;;;17.80;94.10;;;;;;5032368;28;20250;-67
2022/11/04 06:04:17;;;;;;;0.73;0.63;;;17.80;94.00;;;;;;4999798;28;20179;-68
2022/11/04 06:06:44;;;;;;;0.80;0.75;;;17.80;94.00;;;;;;5027284;28;20195;-67
2022/11/04 06:09:10;;;;;;;1.48;1.10;;;17.80;94.40;;;;;;5032479;28;20199;-67
2022/11/04 06:11:37;;;;;;;0.85;0.80;;;17.80;94.00;;;;;;5032293;28;20686;-67
2022/11/04 06:14:03;;;;;;;1.30;1.10;;;17.80;94.00;;;;;;5031874;28;20201;-68
2022/11/04 06:16:29;;;;;;;1.00;0.80;;;17.80;94.00;;;;;;5032327;28;20191;-67
2022/11/04 06:18:55;;;;;;;1.17;0.90;;;17.80;94.00;;;;;;5031868;28;20189;-67
2022/11/04 06:21:28;;;;;;;1.00;0.90;;;17.80;94.00;;;;;;5031826;28;20218;-67
2022/11/04 06:23:56;;;;;;;0.88;0.77;;;17.80;94.00;;;;;;5015253;28;20194;-68
2022/11/04 06:26:24;;;;;;;0.63;0.63;;;17.80;94.00;;;;;;5032127;28;20183;-67
2022/11/04 06:28:50;;;;;;;0.77;0.77;;;17.80;94.00;;;;;;5033108;28;20246;-67
2022/11/04 06:31:16;;;;;;;0.80;0.80;;;17.80;94.00;;;;;;5031730;28;20897;-67
2022/11/04 06:33:42;;;;;;;0.98;0.80;;;17.80;94.00;;;;;;5039492;28;20324;-67
2022/11/04 06:36:12;;;;;;;0.70;0.70;;;17.80;94.00;;;;;;5048647;28;20262;-67
2022/11/04 06:38:38;;;;;;;0.50;0.50;;;17.80;94.00;;;;;;5031634;28;20179;-67
2022/11/04 06:41:13;;;;;;;1.10;0.82;;;17.80;94.00;;;;;;5031555;28;20388;-67
2022/11/04 06:43:39;;;;;;;0.95;0.85;;;17.80;94.00;;;;;;5031527;28;20183;-67
2022/11/04 06:46:05;;;;;;;1.83;0.70;;;17.80;94.00;;;;;;5015065;28;20183;-67
2022/11/04 06:48:31;;;;;;;0.65;0.65;;;17.80;94.00;;;;;;5031276;28;20199;-68
2022/11/04 06:50:59;;;;;;;0.82;0.70;;;17.80;93.90;;;;;;5014890;28;20211;-68
2022/11/04 06:53:26;;;;;;;0.73;0.73;;;17.80;93.80;;;;;;5031285;28;20183;-67
2022/11/04 06:55:53;;;;;;;0.70;0.70;;;17.80;93.80;;;;;;5014986;28;20183;-67
2022/11/04 06:58:19;;;;;;;1.38;0.90;;;17.80;93.90;;;;;;5014905;28;20193;-67
2022/11/04 07:00:51;;;;;;;1.38;0.95;;;17.80;93.80;;;;;;5015101;28;20306;-67
2022/11/04 07:03:17;;;;;;;0.80;0.80;;;17.80;93.90;;;;;;5037887;28;20258;-67
2022/11/04 07:05:43;;;;;;;0.95;0.68;;;17.80;93.80;;;;;;5042919;28;20189;-67
2022/11/04 07:08:08;;;;;;;0.80;0.70;;;17.80;93.70;;;;;;5034455;28;20611;-67
2022/11/04 07:10:34;;;;;;;2.10;0.90;;;17.80;93.80;;;;;;5051037;28;20289;-67
2022/11/04 07:13:00;;;;;;;0.80;0.80;;;17.80;93.80;;;;;;5034141;28;20190;-67
2022/11/04 07:15:26;;;;;;;0.80;0.80;;;17.80;93.80;;;;;;5051055;28;20190;-67
2022/11/04 07:17:51;;;;;;;0.77;0.77;;;17.80;93.90;;;;;;5034740;28;20182;-67
2022/11/04 07:20:17;;;;;;;1.33;0.77;;;17.80;93.80;;;;;;5067299;28;20294;-67
2022/11/04 07:22:43;;;;;;;1.02;0.93;;;17.80;93.90;;;;;;5048993;28;20201;-66
2022/11/04 07:25:08;;;;;;;1.40;0.68;;;17.80;93.60;;;;;;5036377;28;20188;-67
2022/11/04 07:27:34;;;;;;;1.23;0.90;;;17.80;93.80;;;;;;5039662;28;20193;-67
2022/11/04 07:30:00;;;;;;;1.20;0.82;;;17.80;93.80;;;;;;5037559;28;20234;-67
2022/11/04 07:32:26;;;;;;;1.00;0.80;;;17.80;93.70;;;;;;5047511;28;20183;-67
2022/11/04 07:34:52;;;;;;;0.85;0.80;;;17.80;93.70;;;;;;5041001;28;20187;-66
2022/11/04 07:37:17;;;;;;;0.85;0.82;;;17.80;93.80;;;;;;5034235;28;20187;-68
2022/11/04 07:39:43;;;;;;;1.08;0.90;;;17.80;93.70;;;;;;5028908;28;20240;-67
2022/11/04 07:42:09;;;;;;;0.60;0.60;;;17.80;93.70;;;;;;5034409;28;20217;-67
2022/11/04 07:44:34;;;;;;;0.70;0.70;;;17.80;93.70;;;;;;5025635;28;20174;-67
2022/11/04 07:47:00;;;;;;;0.70;0.70;;;17.80;93.70;;;;;;5051050;28;20639;-67
2022/11/04 07:49:26;;;;;;;1.67;0.98;;;17.80;93.60;;;;;;5039714;28;20191;-67
2022/11/04 07:51:52;;;;;;;1.08;0.90;;;17.80;93.50;;;;;;5034185;28;20632;-67
2022/11/04 07:54:18;;;;;;;1.20;0.82;;;17.80;93.60;;;;;;5060107;23;20231;-69
2022/11/04 07:56:43;;;;;;;1.67;0.70;;;17.80;93.50;;;;;;5039607;28;20180;-69
2022/11/04 07:59:10;;;;;;;1.75;1.23;;;17.80;93.60;;;;;;5014281;28;20183;-69
2022/11/04 08:01:36;;;;;;;3.65;2.05;;;17.80;93.60;;;;;;5023833;28;20294;-69
2022/11/04 08:04:01;;;;;;;3.20;2.55;;;17.80;93.50;;;;;;5014356;28;20295;-69
2022/11/04 08:06:29;;;;;;;2.42;1.67;;;17.80;93.50;;;;;;5004269;28;20176;-69
2022/11/04 08:08:57;;;;;;;3.75;2.03;;;17.80;93.50;;;;;;5019012;28;20242;-69
2022/11/04 08:11:27;;;;;;;2.25;2.03;;;17.80;93.50;;;;;;5023865;28;20211;-69
2022/11/04 08:13:54;;;;;;;2.10;1.90;;;17.80;93.40;;;;;;5017341;28;20200;-69
2022/11/04 08:16:23;;;;;;;2.65;1.80;;;17.80;93.50;;;;;;5031337;28;20238;-69
2022/11/04 08:18:51;;;;;;;2.75;2.30;;;17.80;93.60;;;;;;5049828;28;20183;-69
2022/11/04 08:21:19;;;;;;;2.50;2.20;;;17.80;93.50;;;;;;5050754;28;20215;-69
2022/11/04 08:23:46;;;;;;;2.40;2.00;;;17.90;93.60;;;;;;5033785;28;20302;-69
2022/11/04 08:26:16;;;;;;;3.05;2.03;;;17.80;93.60;;;;;;5029426;28;20209;-69
2022/11/04 08:28:42;;;;;;;2.47;2.28;;;17.80;93.50;;;;;;5034294;28;20183;-69
2022/11/04 08:31:27;;;;;;;2.30;2.10;;;17.80;93.50;;;;;;5033934;28;20194;-69
2022/11/04 08:33:55;;;;;;;2.58;2.20;;;17.80;93.40;;;;;;5033724;28;20203;-68
2022/11/04 08:36:32;;;;;;;2.10;1.90;;;17.80;93.50;;;;;;5033862;28;20202;-69
2022/11/04 08:38:58;;;;;;;2.22;1.98;;;17.80;93.40;;;;;;5029018;28;20190;-69
2022/11/04 08:41:28;;;;;;;2.15;1.90;;;17.80;93.50;;;;;;5025449;28;20206;-69
2022/11/04 08:43:58;;;;;;;2.40;1.83;;;17.90;93.50;;;;;;5033799;28;20211;-69
2022/11/04 08:46:24;;;;;;;2.05;1.85;;;17.80;93.30;;;;;;5016784;28;20183;-70
2022/11/04 08:48:50;;;;;;;3.00;1.90;;;17.90;93.40;;;;;;5026977;28;20210;-70
2022/11/04 08:51:20;;;;;;;3.58;1.80;;;17.80;93.40;;;;;;5043036;28;20191;-70
2022/11/04 08:53:47;;;;;;;2.28;1.80;;;17.80;93.30;;;;;;5013861;28;20248;-69
2022/11/04 08:56:37;;;;;;;2.38;2.00;;;17.90;93.50;;;;;;5021613;28;20183;-70
2022/11/04 08:59:04;;;;;;;2.67;1.60;;;17.80;93.40;;;;;;5015061;28;20225;-69
2022/11/04 09:01:34;;;;;;;1.95;1.80;;;17.80;93.40;;;;;;5013575;28;20247;-70
2022/11/04 09:04:00;;;;;;;1.88;1.63;;;17.90;93.50;;;;;;5013330;28;20212;-68
2022/11/04 09:06:33;;;;;;;2.30;1.92;;;17.80;93.50;;;;;;5013375;28;20183;-69
2022/11/04 09:09:03;;;;;;;1.95;1.70;;;17.90;93.50;;;;;;5037662;28;20190;-70
2022/11/04 09:11:31;;;;;;;1.80;1.55;;;17.80;93.30;;;;;;5032311;28;20187;-73
2022/11/04 09:14:01;;;;;;;2.47;1.77;;;17.90;93.40;;;;;;5031322;28;20206;-70
2022/11/04 09:16:30;;;;;;;1.73;1.63;;;17.90;93.40;;;;;;5033397;28;20191;-69
2022/11/04 09:18:57;;;;;;;2.10;1.33;;;17.80;93.30;;;;;;5049728;28;20195;-70
2022/11/04 09:21:24;;;;;;;1.60;1.40;;;17.80;93.30;;;;;;5032900;28;20226;-69
2022/11/04 09:23:50;;;;;;;1.50;1.40;;;17.90;93.30;;;;;;5049612;28;20203;-69
2022/11/04 09:26:17;;;;;;;1.83;1.70;;;17.90;93.60;;;;;;5049697;28;20176;-69
2022/11/04 09:28:43;;;;;;;3.00;1.60;;;17.80;93.40;;;;;;5034183;28;20214;-70
2022/11/04 09:31:17;;;;;;;1.70;1.58;;;17.90;93.30;;;;;;5032807;28;20271;-69
2022/11/04 09:33:43;;;;;;;1.60;1.50;;;17.90;93.40;;;;;;5016071;28;20318;-70
2022/11/04 09:36:11;;;;;;;1.40;1.30;;;17.90;93.40;;;;;;5049759;28;20192;-69
2022/11/04 09:38:39;;;;;;;1.50;1.38;;;17.90;93.40;;;;;;5028348;28;20207;-70
2022/11/04 09:41:52;;;;;;;3.38;1.60;;;17.90;93.40;;;;;;5045437;28;20291;-70
2022/11/04 09:44:32;;;;;;;1.88;1.60;;;17.90;93.30;;;;;;4996259;28;20208;-69
2022/11/04 09:47:02;;;;;;;1.60;1.50;;;17.90;93.20;;;;;;5012837;28;20195;-69
2022/11/04 09:49:37;;;;;;;1.70;1.60;;;17.90;93.30;;;;;;5029211;28;20211;-69
2022/11/04 09:52:17;;;;;;;2.22;1.38;;;17.90;93.20;;;;;;5016486;28;20179;-69
2022/11/04 09:55:05;;;;;;;2.40;1.30;;;17.90;93.30;;;;;;5030912;28;20594;-70
2022/11/04 09:57:32;;;;;;;1.73;1.63;;;17.90;93.40;;;;;;5017118;28;20183;-70
2022/11/04 09:59:59;;;;;;;1.63;1.48;;;17.90;93.20;;;;;;5031914;28;20286;-70
2022/11/04 10:02:51;;;;;;;2.17;1.58;;;17.90;93.20;;;;;;5048397;28;20253;-70
2022/11/04 10:05:46;;;;;;;1.60;1.30;;;17.90;93.20;;;;;;5031084;28;20235;-70
2022/11/04 10:08:25;;;;;;;1.70;1.55;;;17.90;93.20;;;;;;5030210;28;20245;-70
2022/11/04 10:11:04;;;;;;;1.50;1.40;;;17.90;93.30;;;;;;5028166;28;20206;-70
2022/11/04 10:14:04;;;;;;;2.00;1.30;;;17.90;93.30;;;;;;5012012;28;20184;-69
2022/11/04 10:17:16;;;;;;;2.08;1.30;;;17.90;93.20;;;;;;5012264;28;20188;-69
2022/11/04 10:20:00;;;;;;;1.30;1.10;;;17.90;93.20;;;;;;5011602;28;20211;-69
2022/11/04 10:22:46;;;;;;;1.75;1.20;;;17.90;93.10;;;;;;5028889;28;20216;-70
2022/11/04 10:25:24;;;;;;;1.55;1.35;;;17.90;93.10;;;;;;5011861;28;20578;-69
2022/11/04 10:27:51;;;;;;;1.30;1.20;;;17.90;93.10;;;;;;5012081;28;20183;-70
2022/11/04 10:30:20;;;;;;;3.60;1.45;;;17.90;93.10;;;;;;5013238;28;20234;-69
2022/11/04 10:33:27;;;;;;;1.67;1.55;;;17.90;93.10;;;;;;5012278;28;20210;-70
2022/11/04 10:36:06;;;;;;;1.40;1.10;;;17.90;92.90;;;;;;5013222;28;20194;-69
2022/11/04 10:38:39;;;;;;;1.30;1.20;;;17.90;92.90;;;;;;5012718;28;20199;-68
2022/11/04 10:41:34;;;;;;;1.70;1.33;;;17.90;92.80;;;;;;5023302;28;20740;-70
2022/11/04 10:44:31;;;;;;;1.45;1.10;;;17.90;92.80;;;;;;5023951;28;20219;-70
2022/11/04 10:47:09;;;;;;;2.20;1.27;;;17.90;92.90;;;;;;5027603;28;20261;-70
2022/11/04 10:49:38;;;;;;;1.40;1.20;;;17.90;92.80;;;;;;5024785;28;20222;-70
2022/11/04 10:52:07;;;;;;;1.35;1.20;;;17.90;92.80;;;;;;5011949;28;20263;-70
2022/11/04 10:54:47;;;;;;;1.60;1.40;;;17.90;92.70;;;;;;5011446;28;20219;-70
2022/11/04 10:57:20;;;;;;;2.88;1.40;;;17.90;92.70;;;;;;4995558;28;20182;-69
2022/11/04 10:59:54;;;;;;;1.30;1.20;;;17.90;92.80;;;;;;5011565;28;20719;-70
2022/11/04 11:02:46;;;;;;;1.38;1.10;;;17.90;92.70;;;;;;5027959;28;20224;-69
2022/11/04 11:05:17;;;;;;;1.02;0.93;;;17.90;92.70;;;;;;5016366;28;20251;-69
2022/11/04 11:07:54;;;;;;;1.77;1.05;;;17.90;92.80;;;;;;5014759;28;20187;-69
2022/11/04 11:10:33;;;;;;;1.67;1.10;;;17.90;92.90;;;;;;5038037;28;20191;-70
2022/11/04 11:13:03;;;;;;;1.63;1.17;;;17.90;92.70;;;;;;5030717;28;20183;-69
2022/11/04 11:15:34;;;;;;;2.28;1.25;;;17.90;92.60;;;;;;5031345;28;20234;-70
2022/11/04 11:18:27;;;;;;;1.88;1.45;;;17.90;92.60;;;;;;5031080;28;20175;-69
2022/11/04 11:21:20;;;;;;;2.42;1.67;;;17.90;92.50;;;;;;5032363;28;20667;-70
2022/11/04 11:23:50;;;;;;;1.33;1.13;;;17.90;92.40;;;;;;5042049;28;20674;-70
2022/11/04 11:26:30;;;;;;;1.42;1.25;;;17.90;92.40;;;;;;5031035;28;20190;-69
2022/11/04 11:29:02;;;;;;;1.40;1.05;;;17.90;92.30;;;;;;5026983;28;20187;-70
2022/11/04 11:31:38;;;;;;;2.72;1.23;;;18.00;92.30;;;;;;5031332;28;20657;-70
2022/11/04 11:34:14;;;;;;;1.33;1.20;;;17.90;92.40;;;;;;5023579;28;20237;-69
2022/11/04 11:36:43;;;;;;;1.63;1.20;;;17.90;92.30;;;;;;5031758;28;20175;-70
2022/11/04 11:39:13;;;;;;;1.67;1.27;;;17.90;92.20;;;;;;5033355;28;20195;-69
2022/11/04 11:41:52;;;;;;;2.38;1.20;;;17.90;92.10;;;;;;5018210;28;20257;-70
2022/11/04 11:44:33;;;;;;;2.30;1.08;;;17.90;92.00;;;;;;5018060;28;20226;-68
2022/11/04 11:47:04;;;;;;;1.75;1.30;;;17.90;92.20;;;;;;5047218;28;20186;-70
2022/11/04 11:49:34;;;;;;;2.17;1.20;;;17.90;92.30;;;;;;5045950;28;20561;-70
2022/11/04 11:52:31;;;;;;;2.10;1.20;;;17.90;92.20;;;;;;5015318;28;20180;-70
2022/11/04 11:55:17;;;;;;;2.60;1.33;;;17.90;92.30;;;;;;4998493;28;20295;-70
2022/11/04 11:58:03;;;;;;;1.40;1.10;;;17.90;92.20;;;;;;5031686;28;20180;-70
2022/11/04 12:00:37;;;;;;;1.83;1.17;;;17.90;92.20;;;;;;5031422;28;20210;-69
2022/11/04 12:03:43;;;;;;;1.10;0.93;;;17.90;92.10;;;;;;5018027;28;20180;-69
2022/11/04 12:06:47;;;;;;;2.08;1.58;;;18.00;92.30;;;;;;5034265;28;20183;-70
2022/11/04 12:09:25;;;;;;;1.98;1.20;;;17.90;92.20;;;;;;5022734;28;20275;-70
2022/11/04 12:12:21;;;;;;;2.50;0.90;;;18.00;92.20;;;;;;5034539;28;20195;-70
2022/11/04 12:15:27;;;;;;;2.17;1.20;;;17.90;92.10;;;;;;5003403;28;20212;-70
2022/11/04 12:18:29;;;;;;;1.63;1.20;;;17.90;92.00;;;;;;5018739;28;20232;-69
2022/11/04 12:21:03;;;;;;;2.85;1.40;;;17.90;92.00;;;;;;5031317;28;20237;-70
2022/11/04 12:23:52;;;;;;;3.42;1.35;;;17.90;92.20;;;;;;5023712;28;20631;-70
2022/11/04 12:27:02;;;;;;;1.80;1.27;;;17.90;92.10;;;;;;5034198;28;20247;-69
2022/11/04 12:29:37;;;;;;;1.50;1.35;;;17.90;92.00;;;;;;5050936;28;20276;-70
2022/11/04 12:32:38;;;;;;;1.65;1.10;;;17.90;92.20;;;;;;5017135;28;20175;-69
2022/11/04 12:35:59;;;;;;;1.73;1.10;;;18.00;92.10;;;;;;5013963;28;20211;-70
2022/11/04 12:38:30;;;;;;;1.40;1.30;;;17.90;92.20;;;;;;4959418;28;20193;-70
2022/11/04 12:41:23;;;;;;;1.60;1.17;;;17.90;92.30;;;;;;5023232;28;20250;-70
2022/11/04 12:44:06;;;;;;;1.42;1.33;;;17.90;92.20;;;;;;5009114;28;20222;-69
2022/11/04 12:46:54;;;;;;;1.25;1.15;;;17.90;92.10;;;;;;5017756;28;20187;-70
2022/11/04 12:49:41;;;;;;;2.22;1.33;;;17.90;92.20;;;;;;5021816;28;20187;-69
2022/11/04 12:52:38;;;;;;;1.48;1.00;;;17.90;92.10;;;;;;5050515;28;20182;-69
2022/11/04 12:55:28;;;;;;;3.35;1.40;;;17.90;92.10;;;;;;5032014;28;20219;-70
2022/11/04 12:58:17;;;;;;;2.58;1.30;;;17.90;92.20;;;;;;5014758;28;20192;-69
2022/11/04 13:00:52;;;;;;;1.98;1.20;;;17.90;92.10;;;;;;5025087;28;20200;-70
2022/11/04 13:03:30;;;;;;;1.58;1.05;;;18.00;92.20;;;;;;5029955;28;20270;-69
2022/11/04 13:06:10;;;;;;;1.73;1.05;;;18.00;92.00;;;;;;5016414;28;20191;-70
2022/11/04 13:08:54;;;;;;;1.70;1.30;;;18.00;92.20;;;;;;5031425;28;20187;-70
2022/11/04 13:11:51;;;;;;;2.55;1.30;;;17.90;92.10;;;;;;5033587;28;20175;-70
2022/11/04 13:14:28;;;;;;;1.98;1.15;;;18.00;92.10;;;;;;5032871;28;20215;-70
2022/11/04 13:16:59;;;;;;;1.65;1.30;;;17.90;92.10;;;;;;5026174;28;20262;-70
2022/11/04 13:20:01;;;;;;;2.80;1.50;;;18.00;92.20;;;;;;5016703;28;20194;-69
2022/11/04 13:22:33;;;;;;;2.65;1.50;;;18.00;92.20;;;;;;5030945;28;20211;-69
2022/11/04 13:25:14;;;;;;;2.45;1.42;;;18.00;92.00;;;;;;5024550;28;20199;-70
2022/11/04 13:27:47;;;;;;;3.70;1.80;;;18.00;92.00;;;;;;5033350;28;20213;-70
2022/11/04 13:30:46;;;;;;;1.95;1.40;;;18.00;92.00;;;;;;5034460;28;20183;-69
2022/11/04 13:33:51;;;;;;;2.13;1.40;;;18.00;92.00;;;;;;5010877;28;20199;-69
2022/11/04 13:36:57;;;;;;;2.03;1.33;;;18.00;91.90;;;;;;5034038;28;20273;-69
2022/11/04 13:39:34;;;;;;;2.58;1.55;;;18.00;91.90;;;;;;5044457;28;20186;-70
2022/11/04 13:42:27;;;;;;;2.13;1.38;;;18.00;92.00;;;;;;5020816;28;20231;-70
2022/11/04 13:44:56;;;;;;;2.15;1.63;;;18.00;91.90;;;;;;5022993;28;20290;-70
2022/11/04 13:47:36;;;;;;;3.00;1.40;;;18.00;92.00;;;;;;5027938;28;20183;-69
2022/11/04 13:50:03;;;;;;;2.05;1.40;;;18.00;91.90;;;;;;5032695;28;20237;-69
2022/11/04 13:52:31;;;;;;;2.10;1.67;;;18.00;91.80;;;;;;5024833;28;20180;-70
2022/11/04 13:55:05;;;;;;;1.48;1.10;;;18.00;91.70;;;;;;5037464;22;20235;-70
2022/11/04 13:57:52;;;;;;;2.08;1.40;;;17.90;91.90;;;;;;5029365;28;20187;-70